Time;durP1;ratioP1;P1;durP2;ratioP2;P2;SDS_P1;SDS_P2;PMS_P1;PMS_P2;Temp;Humidity;BMP_temperature;BMP_pressure;BME280_temperature;BME280_humidity;BME280_pressure;Samples;Min_cycle;Max_cycle;Signal;HPM_P1;HPM_P2
2022/04/30 00:01:35;;;;;;;0.30;0.20;;;;;;;13.37;90.26;100996.34;5055358;28;20524;-55
2022/04/30 00:04:02;;;;;;;0.30;0.20;;;;;;;13.25;94.12;100978.88;5063950;28;20533;-55
2022/04/30 00:06:28;;;;;;;0.40;0.40;;;;;;;13.31;94.18;100985.88;5057860;28;20454;-55
2022/04/30 00:08:55;;;;;;;1.00;1.00;;;;;;;13.49;94.67;100982.66;5059147;28;20998;-55
2022/04/30 00:11:21;;;;;;;0.30;0.20;;;;;;;13.43;94.40;100982.84;5064774;28;20843;-55
2022/04/30 00:13:48;;;;;;;0.87;0.57;;;;;;;13.45;99.80;100980.13;5064233;28;20453;-55
2022/04/30 00:16:15;;;;;;;0.47;0.47;;;;;;;13.28;98.11;100984.13;5057565;28;20516;-55
2022/04/30 00:18:41;;;;;;;0.40;0.30;;;;;;;13.20;98.22;100978.16;5048834;28;20459;-54
2022/04/30 00:21:08;;;;;;;0.30;0.30;;;;;;;13.01;99.23;100975.06;5065299;28;20466;-54
2022/04/30 00:23:35;;;;;;;0.30;0.20;;;;;;;13.20;97.09;100970.13;5060015;28;20459;-54
2022/04/30 00:26:03;;;;;;;0.30;0.20;;;;;;;13.50;97.23;100972.84;5064950;28;20488;-54
2022/04/30 00:28:30;;;;;;;0.37;0.37;;;;;;;12.99;99.35;100970.69;5059669;28;20496;-54
2022/04/30 00:30:57;;;;;;;0.40;0.20;;;;;;;12.77;100.00;100958.88;5068193;28;20467;-54
2022/04/30 00:33:24;;;;;;;0.50;0.50;;;;;;;12.73;99.96;100963.38;5061305;28;20482;-54
2022/04/30 00:35:52;;;;;;;0.50;0.50;;;;;;;13.25;99.12;100965.53;5070911;28;20457;-55
2022/04/30 00:38:18;;;;;;;0.43;0.40;;;;;;;12.89;100.00;100967.41;5061832;28;20443;-54
2022/04/30 00:40:45;;;;;;;0.30;0.20;;;;;;;12.77;100.00;100972.22;5067514;28;20525;-54
2022/04/30 00:43:12;;;;;;;2.10;2.00;;;;;;;12.46;100.00;100976.53;5068284;28;20528;-54
2022/04/30 00:45:47;;;;;;;1.90;1.80;;;;;;;12.44;100.00;100977.47;5062670;28;20454;-54
2022/04/30 00:48:15;;;;;;;0.30;0.20;;;;;;;12.33;100.00;100974.19;5061563;28;20492;-54
2022/04/30 00:50:42;;;;;;;0.30;0.20;;;;;;;12.40;100.00;100966.03;5074495;28;20527;-54
2022/04/30 00:53:09;;;;;;;0.40;0.30;;;;;;;12.51;100.00;100976.44;5060268;28;20525;-54
2022/04/30 00:55:37;;;;;;;0.30;0.20;;;;;;;12.79;96.50;100973.03;5054928;28;20856;-54
2022/04/30 00:58:06;;;;;;;0.30;0.20;;;;;;;12.68;94.13;100970.66;5067787;28;20819;-54
2022/04/30 01:00:34;;;;;;;0.43;0.43;;;;;;;12.57;95.17;100968.25;5065261;28;20470;-54
2022/04/30 01:03:02;;;;;;;0.43;0.43;;;;;;;12.67;95.10;100964.44;5061242;28;20462;-54
2022/04/30 01:05:29;;;;;;;0.30;0.20;;;;;;;12.64;94.26;100969.00;5063730;28;20457;-54
2022/04/30 01:07:57;;;;;;;0.40;0.30;;;;;;;12.70;92.69;100975.03;5068051;28;20544;-54
2022/04/30 01:10:23;;;;;;;1.57;0.60;;;;;;;12.39;94.60;100966.94;5065432;28;20979;-54
2022/04/30 01:12:50;;;;;;;0.90;0.90;;;;;;;12.38;95.71;100962.53;5061022;28;20511;-54
2022/04/30 01:15:18;;;;;;;0.50;0.50;;;;;;;12.41;94.04;100961.56;5063103;28;20455;-54
2022/04/30 01:17:45;;;;;;;0.30;0.20;;;;;;;12.49;95.04;100961.38;5067919;28;20447;-54
2022/04/30 01:20:12;;;;;;;0.47;0.47;;;;;;;12.36;96.43;100958.16;5065896;28;20509;-54
2022/04/30 01:22:58;;;;;;;0.30;0.20;;;;;;;12.29;95.45;100953.88;5060789;28;20458;-54
2022/04/30 01:25:25;;;;;;;0.30;0.20;;;;;;;12.22;97.00;100939.84;5062700;28;20446;-54
2022/04/30 01:27:53;;;;;;;0.40;0.40;;;;;;;12.27;96.06;100937.06;5066263;28;20530;-54
2022/04/30 01:30:19;;;;;;;0.30;0.20;;;;;;;12.25;96.88;100941.53;5067437;28;20466;-54
2022/04/30 01:38:16;;;;;;;0.40;0.40;;;;;;;12.13;97.15;100940.94;5060254;28;20956;-54
2022/04/30 01:40:43;;;;;;;0.30;0.20;;;;;;;12.01;98.94;100935.91;5066137;28;21045;-54
2022/04/30 01:43:09;;;;;;;0.40;0.40;;;;;;;12.04;98.84;100935.81;5067393;28;20872;-54
2022/04/30 01:45:36;;;;;;;2.13;2.00;;;;;;;12.24;99.43;100927.34;5060494;28;20450;-54
2022/04/30 01:48:04;;;;;;;0.30;0.20;;;;;;;12.25;99.83;100930.88;5060524;28;20490;-54
2022/04/30 01:50:33;;;;;;;0.30;0.20;;;;;;;12.20;100.00;100923.00;5066586;28;20548;-52
2022/04/30 01:53:00;;;;;;;0.40;0.40;;;;;;;12.17;100.00;100920.41;5050771;28;20459;-53
2022/04/30 01:55:27;;;;;;;0.53;0.50;;;;;;;12.24;100.00;100922.00;5045114;28;20948;-52
2022/04/30 01:57:53;;;;;;;0.33;0.20;;;;;;;12.31;100.00;100920.06;5066887;28;20449;-52
2022/04/30 02:00:20;;;;;;;0.30;0.30;;;;;;;12.25;100.00;100921.09;5053737;28;20467;-52
2022/04/30 02:02:50;;;;;;;0.30;0.20;;;;;;;12.19;100.00;100923.03;5057573;28;20761;-52
2022/04/30 02:05:20;;;;;;;0.77;0.77;;;;;;;12.00;100.00;100922.63;5068077;28;20458;-52
2022/04/30 02:07:52;;;;;;;1.43;1.33;;;;;;;12.09;100.00;100923.28;5060313;28;20880;-52
2022/04/30 02:10:21;;;;;;;0.50;0.50;;;;;;;12.02;100.00;100919.00;5057451;28;20523;-52
2022/04/30 02:12:50;;;;;;;0.40;0.40;;;;;;;12.09;100.00;100917.94;5055829;28;20447;-52
2022/04/30 02:15:18;;;;;;;0.33;0.20;;;;;;;12.23;100.00;100914.06;5053207;28;20451;-52
2022/04/30 02:17:49;;;;;;;4.00;0.90;;;;;;;11.81;100.00;100911.53;5044711;28;20441;-52
2022/04/30 02:20:24;;;;;;;1.20;1.20;;;;;;;11.94;100.00;100904.13;5061618;28;20516;-52
2022/04/30 02:22:54;;;;;;;0.30;0.20;;;;;;;12.06;100.00;100904.69;5053167;28;20542;-52
2022/04/30 02:25:22;;;;;;;0.30;0.20;;;;;;;12.17;100.00;100899.06;5042937;28;20816;-52
2022/04/30 02:27:51;;;;;;;0.50;0.50;;;;;;;12.04;100.00;100901.16;5065746;28;20522;-52
2022/04/30 02:30:22;;;;;;;0.93;0.93;;;;;;;12.02;100.00;100904.78;5053912;28;20473;-52
2022/04/30 02:32:58;;;;;;;0.30;0.20;;;;;;;12.15;100.00;100901.78;5073352;28;20495;-52
2022/04/30 02:35:28;;;;;;;0.50;0.50;;;;;;;12.27;100.00;100900.59;5059138;28;20449;-52
2022/04/30 02:37:57;;;;;;;0.30;0.20;;;;;;;12.15;100.00;100900.91;5062801;28;20575;-52
2022/04/30 02:40:25;;;;;;;2.77;1.43;;;;;;;12.14;100.00;100892.03;5066004;28;20513;-52
2022/04/30 02:42:53;;;;;;;0.40;0.40;;;;;;;12.14;100.00;100899.16;5064234;28;20509;-53
2022/04/30 02:45:22;;;;;;;0.50;0.50;;;;;;;12.20;100.00;100899.03;5059072;28;20450;-52
2022/04/30 02:47:53;;;;;;;0.53;0.53;;;;;;;12.13;100.00;100892.97;5060960;28;20498;-52
2022/04/30 02:50:23;;;;;;;4.40;1.67;;;;;;;12.03;100.00;100887.88;5052502;28;20506;-52
2022/04/30 02:52:52;;;;;;;4.63;0.73;;;;;;;12.13;100.00;100886.75;5066067;28;20442;-53
2022/04/30 02:55:19;;;;;;;4.60;0.67;;;;;;;12.00;100.00;100890.63;5050293;28;20473;-52
2022/04/30 03:00:39;;;;;;;0.30;0.20;;;;;;;11.95;100.00;100885.44;5063516;28;20470;-52
2022/04/30 03:03:10;;;;;;;0.40;0.30;;;;;;;11.83;100.00;100888.41;5045813;28;20478;-52
2022/04/30 03:05:43;;;;;;;0.30;0.20;;;;;;;11.90;100.00;100881.13;5049418;28;20562;-52
2022/04/30 03:08:12;;;;;;;0.30;0.20;;;;;;;11.92;100.00;100876.63;5047778;28;20558;-54
2022/04/30 03:10:39;;;;;;;0.40;0.30;;;;;;;11.89;100.00;100869.59;5059109;28;20467;-54
2022/04/30 03:13:06;;;;;;;0.40;0.40;;;;;;;11.87;100.00;100871.41;5071022;28;20523;-54
2022/04/30 03:15:34;;;;;;;0.60;0.60;;;;;;;12.06;100.00;100866.50;5058606;28;20451;-54
2022/04/30 03:23:37;;;;;;;0.93;0.93;;;;;;;11.94;100.00;100875.69;5050884;28;20451;-54
2022/04/30 03:26:05;;;;;;;0.70;0.70;;;;;;;11.84;100.00;100864.38;5065889;28;20537;-54
2022/04/30 03:28:32;;;;;;;0.40;0.30;;;;;;;11.77;100.00;100868.06;5065311;28;20493;-55
2022/04/30 03:31:00;;;;;;;0.30;0.30;;;;;;;11.75;100.00;100856.56;5058994;28;20893;-54
2022/04/30 03:33:27;;;;;;;2.40;0.90;;;;;;;12.09;100.00;100867.31;5068086;28;20503;-54
2022/04/30 03:35:54;;;;;;;2.83;2.43;;;;;;;12.05;100.00;100862.94;5049863;28;20868;-54
2022/04/30 03:38:21;;;;;;;1.57;1.57;;;;;;;11.93;100.00;100860.63;5059917;28;20449;-54
2022/04/30 03:40:48;;;;;;;0.30;0.23;;;;;;;11.85;100.00;100866.13;5059941;28;20465;-54
2022/04/30 03:43:15;;;;;;;0.30;0.20;;;;;;;11.85;100.00;100860.81;5057769;28;20504;-54
2022/04/30 03:45:42;;;;;;;0.30;0.20;;;;;;;11.90;100.00;100863.34;5064278;28;20482;-54
2022/04/30 03:48:09;;;;;;;0.30;0.20;;;;;;;11.80;100.00;100860.06;5064430;28;20542;-54
2022/04/30 03:50:36;;;;;;;0.50;0.50;;;;;;;11.78;100.00;100871.59;5063567;28;20892;-54
2022/04/30 03:53:02;;;;;;;0.30;0.20;;;;;;;11.78;100.00;100864.47;5064903;28;20515;-54
2022/04/30 03:55:29;;;;;;;0.40;0.30;;;;;;;11.86;100.00;100864.34;5034448;28;20496;-54
2022/04/30 03:57:56;;;;;;;0.70;0.50;;;;;;;11.86;100.00;100867.00;5064891;28;20454;-54
2022/04/30 04:00:24;;;;;;;0.30;0.20;;;;;;;11.75;100.00;100866.34;5059666;28;20501;-54
2022/04/30 04:02:52;;;;;;;0.80;0.80;;;;;;;11.77;100.00;100862.72;5055556;28;20463;-54
2022/04/30 04:05:19;;;;;;;0.30;0.20;;;;;;;11.75;100.00;100869.00;5065492;28;20457;-54
2022/04/30 04:07:45;;;;;;;0.30;0.20;;;;;;;11.76;100.00;100865.44;5068034;28;20513;-54
2022/04/30 04:10:12;;;;;;;0.30;0.20;;;;;;;11.71;100.00;100867.34;5066353;28;21015;-55
2022/04/30 04:12:43;;;;;;;0.30;0.20;;;;;;;11.64;100.00;100863.94;5069303;28;20486;-54
2022/04/30 04:17:55;;;;;;;0.80;0.80;;;;;;;11.55;100.00;100856.19;5068418;28;20485;-54
2022/04/30 04:20:24;;;;;;;0.43;0.40;;;;;;;11.52;100.00;100864.25;5068943;28;20535;-54
2022/04/30 04:22:54;;;;;;;0.30;0.20;;;;;;;11.55;100.00;100873.03;5068645;28;20482;-54
2022/04/30 04:28:07;;;;;;;0.30;0.20;;;;;;;11.60;100.00;100872.91;5059635;28;20528;-54
2022/04/30 04:30:34;;;;;;;0.30;0.20;;;;;;;11.56;100.00;100876.56;5068772;28;20845;-54
2022/04/30 04:33:02;;;;;;;0.30;0.20;;;;;;;11.49;100.00;100877.59;5065640;28;20959;-54
2022/04/30 04:35:29;;;;;;;0.60;0.60;;;;;;;11.62;100.00;100883.53;5062093;28;20450;-54
2022/04/30 04:37:56;;;;;;;0.60;0.60;;;;;;;11.64;100.00;100887.03;5057923;28;20563;-54
2022/04/30 04:40:22;;;;;;;0.40;0.30;;;;;;;11.74;100.00;100889.44;5067252;28;20541;-54
2022/04/30 04:42:49;;;;;;;0.60;0.60;;;;;;;11.92;100.00;100888.16;5065470;28;20499;-54
2022/04/30 04:45:15;;;;;;;0.30;0.20;;;;;;;11.78;100.00;100890.25;5061614;28;20959;-54
2022/04/30 04:47:49;;;;;;;0.30;0.20;;;;;;;11.78;100.00;100895.56;5064143;28;20504;-54
2022/04/30 04:50:17;;;;;;;0.30;0.20;;;;;;;11.60;100.00;100896.88;5068245;28;20850;-54
2022/04/30 04:52:44;;;;;;;0.60;0.40;;;;;;;11.74;100.00;100899.22;5061093;28;21021;-54
2022/04/30 04:55:11;;;;;;;4.40;0.70;;;;;;;11.83;100.00;100893.72;5055725;28;20843;-54
2022/04/30 04:57:39;;;;;;;0.50;0.33;;;;;;;11.76;100.00;100902.72;5063326;28;20457;-54
2022/04/30 05:00:07;;;;;;;0.40;0.40;;;;;;;11.50;100.00;100904.19;5068233;28;20521;-54
2022/04/30 05:02:35;;;;;;;0.30;0.20;;;;;;;11.71;100.00;100901.97;5056633;28;20492;-54
2022/04/30 05:05:03;;;;;;;0.30;0.20;;;;;;;11.73;100.00;100900.13;5067868;28;20455;-54
2022/04/30 05:07:29;;;;;;;0.30;0.20;;;;;;;11.58;100.00;100901.38;5065523;28;20461;-54
2022/04/30 05:09:56;;;;;;;0.30;0.20;;;;;;;11.54;100.00;100897.91;5063076;28;20486;-54
2022/04/30 05:12:22;;;;;;;0.30;0.20;;;;;;;11.31;100.00;100902.84;5051859;28;20949;-54
2022/04/30 05:14:52;;;;;;;0.60;0.60;;;;;;;11.43;100.00;100909.69;5066266;28;20497;-54
2022/04/30 05:17:19;;;;;;;0.33;0.20;;;;;;;11.41;100.00;100914.19;5067880;28;20496;-54
2022/04/30 05:19:46;;;;;;;0.40;0.40;;;;;;;11.52;100.00;100907.72;5062138;28;20535;-54
2022/04/30 05:22:14;;;;;;;0.57;0.57;;;;;;;11.52;100.00;100907.72;5070320;28;20450;-54
2022/04/30 05:24:41;;;;;;;0.40;0.20;;;;;;;11.49;100.00;100912.22;5062455;28;20449;-54
2022/04/30 05:27:08;;;;;;;0.30;0.20;;;;;;;11.47;100.00;100911.38;5061161;28;20461;-54
2022/04/30 05:29:35;;;;;;;0.40;0.30;;;;;;;11.49;100.00;100910.44;5065245;28;20491;-54
2022/04/30 05:32:02;;;;;;;0.30;0.20;;;;;;;11.73;100.00;100918.78;5056260;28;20455;-54
2022/04/30 05:34:29;;;;;;;3.57;1.03;;;;;;;11.55;100.00;100920.09;5064900;28;20513;-54
2022/04/30 05:36:56;;;;;;;0.73;0.73;;;;;;;11.50;100.00;100916.63;5067600;28;20835;-54
2022/04/30 05:39:22;;;;;;;0.50;0.30;;;;;;;11.52;100.00;100918.38;5050168;28;20460;-54
2022/04/30 05:41:49;;;;;;;1.17;1.17;;;;;;;11.73;100.00;100916.13;5055405;28;20804;-54
2022/04/30 05:44:16;;;;;;;2.90;1.67;;;;;;;11.83;100.00;100920.34;5052755;28;21016;-54
2022/04/30 05:46:42;;;;;;;0.37;0.37;;;;;;;11.64;100.00;100917.19;5050246;28;20448;-54
2022/04/30 05:49:09;;;;;;;2.03;2.03;;;;;;;11.66;100.00;100922.50;5052990;28;20571;-54
2022/04/30 05:51:36;;;;;;;1.23;1.23;;;;;;;11.49;100.00;100920.19;5056886;28;20447;-54
2022/04/30 05:54:02;;;;;;;1.13;1.03;;;;;;;11.88;100.00;100921.13;5054785;28;20458;-54
2022/04/30 05:56:29;;;;;;;0.30;0.20;;;;;;;11.85;100.00;100922.06;5057223;28;20450;-54
2022/04/30 05:58:55;;;;;;;0.30;0.20;;;;;;;11.83;100.00;100925.69;5062464;28;20478;-54
2022/04/30 06:01:22;;;;;;;0.63;0.63;;;;;;;11.91;100.00;100928.16;5065998;28;20503;-54
2022/04/30 06:03:49;;;;;;;1.10;1.10;;;;;;;11.94;100.00;100928.09;5064122;28;20450;-54
2022/04/30 06:06:19;;;;;;;0.30;0.20;;;;;;;11.48;100.00;100927.31;5055058;28;20445;-54
2022/04/30 06:08:47;;;;;;;2.00;1.27;;;;;;;11.62;100.00;100928.78;5051215;28;20483;-54
2022/04/30 06:11:13;;;;;;;0.30;0.20;;;;;;;11.64;100.00;100929.63;5051520;28;20470;-54
2022/04/30 06:13:40;;;;;;;0.40;0.40;;;;;;;11.92;100.00;100936.09;5058885;28;20455;-54
2022/04/30 06:16:07;;;;;;;0.40;0.30;;;;;;;11.79;100.00;100937.34;5066422;28;20447;-55
2022/04/30 06:18:33;;;;;;;0.50;0.50;;;;;;;11.74;100.00;100942.72;5052381;28;20479;-54
2022/04/30 06:21:22;;;;;;;0.63;0.63;;;;;;;11.90;100.00;100937.06;5064992;28;20462;-54
2022/04/30 06:23:48;;;;;;;2.67;1.17;;;;;;;11.74;100.00;100941.84;5049414;28;20459;-54
2022/04/30 06:26:15;;;;;;;0.50;0.50;;;;;;;11.79;100.00;100946.19;5046918;28;20954;-54
2022/04/30 06:28:42;;;;;;;0.40;0.30;;;;;;;11.72;100.00;100943.66;5062553;28;20513;-54
2022/04/30 06:31:08;;;;;;;1.33;1.33;;;;;;;11.81;100.00;100941.72;5051513;28;20474;-54
2022/04/30 06:33:35;;;;;;;0.67;0.67;;;;;;;11.63;100.00;100954.50;5065350;28;20446;-54
2022/04/30 06:36:02;;;;;;;0.30;0.20;;;;;;;11.70;100.00;100957.03;5052926;28;20532;-54
2022/04/30 06:38:29;;;;;;;0.30;0.20;;;;;;;11.71;100.00;100949.91;5064993;28;20866;-54
2022/04/30 06:40:55;;;;;;;0.30;0.20;;;;;;;11.84;100.00;100954.06;5053675;28;20475;-54
2022/04/30 06:43:22;;;;;;;0.30;0.20;;;;;;;11.76;100.00;100958.66;5052588;28;20451;-54
2022/04/30 06:45:48;;;;;;;0.30;0.20;;;;;;;11.86;100.00;100963.78;5054092;28;20451;-54
2022/04/30 06:48:15;;;;;;;0.40;0.30;;;;;;;11.74;100.00;100965.81;5045365;28;20902;-55
2022/04/30 06:50:43;;;;;;;4.93;3.53;;;;;;;12.03;100.00;100962.50;5051042;28;20839;-54
2022/04/30 06:58:50;;;;;;;0.30;0.20;;;;;;;11.63;100.00;100970.50;5049055;28;20480;-54
2022/04/30 07:04:17;;;;;;;1.53;1.53;;;;;;;11.62;100.00;100974.06;5049322;28;20450;-54
2022/04/30 07:06:47;;;;;;;1.20;1.20;;;;;;;11.54;100.00;100968.91;5042788;28;20457;-54
2022/04/30 07:09:13;;;;;;;0.40;0.20;;;;;;;11.39;100.00;100978.13;5059589;28;20574;-55
2022/04/30 07:11:40;;;;;;;1.30;1.30;;;;;;;11.32;100.00;100976.47;5064913;28;20504;-54
2022/04/30 07:14:07;;;;;;;0.30;0.20;;;;;;;11.81;100.00;100973.66;5065702;28;20531;-55
2022/04/30 07:16:34;;;;;;;0.77;0.77;;;;;;;11.89;100.00;100970.81;5061015;28;20456;-55
2022/04/30 07:19:02;;;;;;;0.30;0.20;;;;;;;12.10;100.00;100974.78;5058677;28;20849;-55
2022/04/30 07:21:31;;;;;;;0.43;0.40;;;;;;;11.79;100.00;100977.28;5063683;28;20455;-55
2022/04/30 07:23:59;;;;;;;0.30;0.20;;;;;;;12.06;100.00;100981.06;5061026;28;20872;-55
2022/04/30 07:26:26;;;;;;;0.30;0.20;;;;;;;12.05;100.00;100985.53;5063035;28;20435;-55
2022/04/30 07:28:53;;;;;;;6.33;1.30;;;;;;;11.91;100.00;100981.44;5065429;28;20459;-55
2022/04/30 07:31:19;;;;;;;2.93;0.70;;;;;;;12.04;100.00;100988.22;5061884;28;20469;-55
2022/04/30 07:33:47;;;;;;;0.40;0.33;;;;;;;12.14;98.95;100990.66;5058443;28;20455;-55
2022/04/30 07:36:14;;;;;;;1.03;1.03;;;;;;;11.86;99.60;100984.22;5061830;28;20957;-54
2022/04/30 07:38:41;;;;;;;1.03;1.03;;;;;;;12.02;99.63;100987.41;5064811;28;20463;-55
2022/04/30 07:41:07;;;;;;;0.77;0.70;;;;;;;12.19;99.23;100990.53;5062231;28;20500;-55
2022/04/30 07:43:34;;;;;;;1.90;0.50;;;;;;;12.01;99.69;100993.63;5058350;28;20450;-55
2022/04/30 07:46:00;;;;;;;1.40;1.03;;;;;;;12.16;98.62;100988.81;5061383;28;20451;-55
2022/04/30 07:48:27;;;;;;;0.50;0.50;;;;;;;12.13;98.54;100988.91;5064891;28;20958;-55
2022/04/30 07:50:57;;;;;;;0.60;0.60;;;;;;;12.07;98.39;100996.19;5044931;28;20534;-54
2022/04/30 07:53:25;;;;;;;0.70;0.60;;;;;;;11.87;99.30;100993.94;5054953;28;20509;-55
2022/04/30 07:55:54;;;;;;;0.30;0.20;;;;;;;11.68;100.00;100995.25;5051803;28;20512;-55
2022/04/30 07:58:21;;;;;;;0.30;0.20;;;;;;;11.80;99.85;101000.34;5063699;28;20505;-55
2022/04/30 08:00:47;;;;;;;0.63;0.60;;;;;;;11.74;99.11;101003.09;5063801;28;21112;-54
2022/04/30 08:03:14;;;;;;;1.13;1.13;;;;;;;11.80;99.72;101000.34;5057969;28;20840;-55
2022/04/30 08:05:41;;;;;;;0.30;0.20;;;;;;;11.71;98.85;101003.16;5057978;28;20867;-55
2022/04/30 08:08:07;;;;;;;0.30;0.20;;;;;;;11.93;98.52;100993.84;5064826;28;20450;-55
2022/04/30 08:10:34;;;;;;;0.30;0.20;;;;;;;12.21;97.65;100999.41;5064293;28;20521;-55
2022/04/30 08:13:01;;;;;;;0.30;0.20;;;;;;;12.28;96.73;100997.44;5058304;28;20485;-55
2022/04/30 08:15:27;;;;;;;0.30;0.20;;;;;;;12.34;97.31;100999.97;5057845;28;20481;-55
2022/04/30 08:17:55;;;;;;;0.30;0.20;;;;;;;12.31;95.48;100998.22;5058189;28;20450;-55
2022/04/30 08:20:21;;;;;;;1.03;1.03;;;;;;;12.64;95.93;101006.34;5057866;28;20462;-55
2022/04/30 08:22:49;;;;;;;0.30;0.20;;;;;;;12.67;95.34;101001.78;5064813;28;20451;-55
2022/04/30 08:25:16;;;;;;;1.13;1.13;;;;;;;12.46;94.92;101007.66;5063528;28;20453;-55
2022/04/30 08:27:43;;;;;;;0.70;0.70;;;;;;;12.49;95.01;101006.72;5058630;28;20854;-55
2022/04/30 08:30:13;;;;;;;0.40;0.30;;;;;;;12.68;94.43;101002.66;5057683;28;20525;-55
2022/04/30 08:32:40;;;;;;;0.90;0.90;;;;;;;12.75;93.72;101006.94;5063921;28;20446;-54
2022/04/30 08:35:07;;;;;;;1.00;1.00;;;;;;;12.84;93.29;101006.69;5064992;28;20442;-55
2022/04/30 08:37:54;;;;;;;0.30;0.20;;;;;;;13.07;92.92;101006.06;5062638;28;20453;-55
2022/04/30 08:40:21;;;;;;;0.30;0.30;;;;;;;12.80;93.47;101013.00;5057494;28;20469;-55
2022/04/30 08:42:47;;;;;;;0.40;0.40;;;;;;;13.01;92.45;101011.56;5060620;28;20459;-55
2022/04/30 08:45:14;;;;;;;0.30;0.20;;;;;;;12.92;91.78;101009.16;5064807;28;20877;-55
2022/04/30 08:47:42;;;;;;;0.30;0.20;;;;;;;12.99;91.89;100994.72;5062144;28;20495;-55
2022/04/30 08:50:11;;;;;;;0.30;0.20;;;;;;;13.10;91.11;101007.78;5060339;28;20555;-55
2022/04/30 08:52:38;;;;;;;1.40;1.40;;;;;;;12.93;92.99;101003.78;5064131;28;20523;-55
2022/04/30 08:55:06;;;;;;;2.73;2.53;;;;;;;12.97;92.34;101007.22;5055829;28;20500;-55
2022/04/30 08:57:33;;;;;;;0.40;0.20;;;;;;;13.31;90.09;101005.44;5066267;28;20453;-55
2022/04/30 09:00:00;;;;;;;2.40;0.77;;;;;;;13.24;89.92;101009.16;5061466;28;20500;-55
2022/04/30 09:02:27;;;;;;;0.40;0.30;;;;;;;12.78;91.69;101008.63;5062115;28;20451;-54
2022/04/30 09:04:54;;;;;;;0.30;0.20;;;;;;;12.98;91.20;101006.31;5068203;28;20512;-54
2022/04/30 09:07:23;;;;;;;0.30;0.20;;;;;;;13.24;90.04;101013.63;5067533;28;20449;-54
2022/04/30 09:09:58;;;;;;;4.20;0.87;;;;;;;13.39;89.00;101012.31;5060991;28;20551;-54
2022/04/30 09:12:27;;;;;;;0.30;0.20;;;;;;;13.53;88.99;101007.47;5061159;28;20500;-54
2022/04/30 09:14:54;;;;;;;0.30;0.20;;;;;;;13.18;88.69;101012.03;5066165;28;20967;-54
2022/04/30 09:17:24;;;;;;;0.93;0.93;;;;;;;13.37;87.15;101011.50;5068116;28;20497;-54
2022/04/30 09:19:57;;;;;;;0.50;0.50;;;;;;;13.02;90.48;101016.00;5063437;28;21005;-54
2022/04/30 09:22:34;;;;;;;0.30;0.20;;;;;;;13.14;89.33;101012.97;5061144;28;20495;-54
2022/04/30 09:25:04;;;;;;;0.80;0.80;;;;;;;13.34;88.11;101020.47;5069067;28;20445;-54
2022/04/30 09:27:52;;;;;;;0.30;0.20;;;;;;;13.34;87.70;101020.47;5050136;28;20966;-54
2022/04/30 09:30:20;;;;;;;0.50;0.50;;;;;;;13.12;88.60;101020.16;5072724;28;20540;-54
2022/04/30 09:33:07;;;;;;;2.30;0.70;;;;;;;13.10;87.63;101018.44;5062469;28;20968;-54
2022/04/30 09:38:25;;;;;;;0.30;0.20;;;;;;;13.41;87.06;101013.16;5060605;28;20956;-55
2022/04/30 09:40:59;;;;;;;0.30;0.20;;;;;;;13.54;86.54;101014.56;5065736;28;20473;-55
2022/04/30 09:43:36;;;;;;;0.77;0.77;;;;;;;13.53;85.29;101012.81;5064834;28;20504;-54
2022/04/30 09:46:07;;;;;;;0.30;0.20;;;;;;;13.40;86.30;101012.28;5067851;28;20943;-55
2022/04/30 09:54:07;;;;;;;0.43;0.40;;;;;;;13.27;87.11;101010.88;5063849;28;20439;-54
2022/04/30 09:56:35;;;;;;;1.37;1.07;;;;;;;13.13;87.54;101010.34;5058209;28;20499;-55
2022/04/30 09:59:08;;;;;;;0.40;0.30;;;;;;;13.37;87.11;101004.38;5062710;28;20479;-55
2022/04/30 10:01:37;;;;;;;0.30;0.20;;;;;;;13.34;87.35;101016.00;5065969;28;20447;-55
2022/04/30 10:04:07;;;;;;;0.30;0.20;;;;;;;13.36;86.15;101002.63;5066444;28;20986;-55
2022/04/30 10:06:44;;;;;;;1.63;0.80;;;;;;;13.43;85.59;101003.31;5059924;28;20935;-55
2022/04/30 10:09:27;;;;;;;0.30;0.20;;;;;;;13.32;85.09;101000.97;5059766;28;20493;-54
2022/04/30 10:12:02;;;;;;;3.93;0.97;;;;;;;13.47;85.35;101000.53;5063256;28;20442;-54
2022/04/30 10:14:41;;;;;;;1.60;1.00;;;;;;;13.45;85.73;101007.69;5066818;28;20446;-55
2022/04/30 10:17:12;;;;;;;1.10;1.10;;;;;;;13.72;85.36;100995.31;5066702;28;20453;-54
2022/04/30 10:19:41;;;;;;;0.63;0.63;;;;;;;13.78;83.90;101005.81;5059459;28;20519;-54
2022/04/30 10:22:16;;;;;;;0.40;0.20;;;;;;;13.55;85.08;101002.94;5059869;28;20470;-54
2022/04/30 10:24:52;;;;;;;1.20;1.20;;;;;;;13.45;85.31;101007.69;5067723;28;21003;-54
2022/04/30 10:27:19;;;;;;;0.70;0.70;;;;;;;13.46;84.24;101011.25;5059792;28;20453;-54
2022/04/30 10:29:57;;;;;;;0.40;0.20;;;;;;;13.60;84.37;101004.59;5062883;28;20525;-54
2022/04/30 10:32:31;;;;;;;0.70;0.70;;;;;;;13.78;84.37;101005.81;5066758;28;20482;-54
2022/04/30 10:34:59;;;;;;;0.33;0.23;;;;;;;13.31;83.51;101002.75;5065632;28;20488;-54
2022/04/30 10:37:30;;;;;;;1.13;0.40;;;;;;;13.42;85.58;100999.75;5059792;28;20479;-54
2022/04/30 10:39:58;;;;;;;0.50;0.50;;;;;;;13.76;83.69;100996.97;5041539;28;20471;-54
2022/04/30 10:42:40;;;;;;;0.30;0.20;;;;;;;13.39;83.19;101002.53;5065852;28;20447;-54
2022/04/30 10:45:11;;;;;;;3.27;1.60;;;;;;;13.58;83.55;100994.88;5066208;28;20495;-54
2022/04/30 10:47:52;;;;;;;0.33;0.27;;;;;;;13.49;83.94;101003.13;5062558;28;20438;-54
2022/04/30 10:50:19;;;;;;;1.10;1.00;;;;;;;13.56;83.62;101007.38;5059221;28;20598;-54
2022/04/30 10:52:48;;;;;;;0.50;0.50;;;;;;;13.40;84.27;101003.41;5059515;28;20881;-55
2022/04/30 10:55:16;;;;;;;0.40;0.30;;;;;;;13.43;83.54;101004.22;5053147;28;20443;-54
2022/04/30 10:57:44;;;;;;;0.40;0.30;;;;;;;13.50;84.56;101004.88;5065908;28;20453;-54
2022/04/30 11:00:12;;;;;;;0.40;0.40;;;;;;;13.45;84.10;101002.38;5059980;28;20603;-54
2022/04/30 11:02:39;;;;;;;0.30;0.20;;;;;;;13.45;84.07;101004.16;5057110;28;20458;-54
2022/04/30 11:05:18;;;;;;;0.30;0.20;;;;;;;13.53;83.55;101005.66;5064514;28;20446;-54
2022/04/30 11:07:45;;;;;;;0.50;0.50;;;;;;;13.54;83.19;100998.53;5065728;28;20478;-54
2022/04/30 11:10:12;;;;;;;0.30;0.20;;;;;;;13.47;83.10;100997.84;5062172;28;20489;-54
2022/04/30 11:12:38;;;;;;;0.43;0.43;;;;;;;13.39;82.76;100996.31;5058889;28;20477;-54
2022/04/30 11:15:06;;;;;;;0.40;0.20;;;;;;;13.49;81.96;100995.13;5061998;28;20857;-54
2022/04/30 11:17:43;;;;;;;0.30;0.20;;;;;;;13.45;82.87;100990.81;5065582;28;20454;-53
2022/04/30 11:20:23;;;;;;;0.60;0.60;;;;;;;13.50;82.41;100991.53;5045780;28;20466;-54
2022/04/30 11:22:55;;;;;;;3.40;1.73;;;;;;;13.46;82.60;100998.78;5046353;28;20507;-54
2022/04/30 11:25:22;;;;;;;0.80;0.70;;;;;;;13.68;81.64;100996.31;5064462;28;21000;-54
2022/04/30 11:27:56;;;;;;;0.30;0.20;;;;;;;13.68;81.72;100993.66;5060374;28;20500;-54
2022/04/30 11:30:23;;;;;;;0.40;0.40;;;;;;;13.54;81.98;100986.03;5058304;28;20525;-54
2022/04/30 11:32:49;;;;;;;0.40;0.30;;;;;;;13.25;83.41;100994.91;5062352;28;20476;-54
2022/04/30 11:35:19;;;;;;;0.40;0.37;;;;;;;13.03;83.66;100996.41;5065482;28;20965;-54
2022/04/30 11:37:45;;;;;;;0.87;0.87;;;;;;;13.13;84.47;100984.53;5062676;28;20454;-54
2022/04/30 11:40:12;;;;;;;0.30;0.20;;;;;;;12.86;85.30;100985.28;5058327;28;20496;-54
2022/04/30 11:42:39;;;;;;;0.77;0.77;;;;;;;12.97;85.99;100988.53;5061103;28;20523;-54
2022/04/30 11:45:06;;;;;;;1.13;0.97;;;;;;;13.45;83.64;100988.13;5065055;28;20928;-54
2022/04/30 11:47:33;;;;;;;0.33;0.23;;;;;;;13.42;82.88;100985.53;5062719;28;20449;-54
2022/04/30 11:50:09;;;;;;;0.30;0.20;;;;;;;13.16;83.96;100986.25;5058111;28;20473;-54
2022/04/30 11:52:36;;;;;;;0.80;0.80;;;;;;;12.81;84.94;100987.22;5059568;28;20438;-54
2022/04/30 11:55:04;;;;;;;1.17;1.17;;;;;;;12.97;85.81;100988.53;5055457;28;20944;-54
2022/04/30 11:57:32;;;;;;;0.40;0.30;;;;;;;13.10;83.71;100989.09;5063715;28;20450;-54
2022/04/30 11:59:59;;;;;;;0.97;0.97;;;;;;;13.12;83.08;100985.44;5058179;28;20473;-54
2022/04/30 12:02:30;;;;;;;0.30;0.20;;;;;;;12.81;84.33;100988.09;5059335;28;20490;-54
2022/04/30 12:05:04;;;;;;;0.93;0.93;;;;;;;12.83;83.37;100983.59;5065092;28;20490;-54